sim
Sign-in with your pilot id or email,
or register
Callsign
Passwort

Schedule Details

Flight Number: RYR34 (3)
Departure: Manchester Airport (EGCC) at 10:50
Arrival: Bratislava M. R. Stefanik Airport (LZIB) at 13:20
Route: Ryanair Passenger Schedule. Enter filed route here before submitting Pirep.

Weather Information
Getting current METAR information for EGCC 231950Z AUTO VRB03KT 7000 NCD 09/08 Q1007
Getting current METAR information for LZIB 232000Z 05007KT CAVOK 13/10 Q1017

Schedule Frequency

Route Map